Strona główna
METAR-TAF:

METAR-TAF

Lotnisko :

Stornoway, Szkocja

Szerokość geograficzna: 58-13N, Długość geograficzna: 006-19W, wysokość: 9 m

Aktualna obserwacja pogody

Raport powstał 29 minut temu, godzina 19:50 UTC
Wiatr 5 kt od południowy zachód
Temperatura 14°C
Wilgotność 82%
Ciśnienie 1001 hPa
Widzialność 10 km lub więcej

METAR: EGPO 181950Z AUTO 22005KT 9999 SCT024/// BKN033/// 14/11 Q1001

czas: 21:19 (20:19 UTC)

Prognoza

Raport powstał 3 godziny i 18 minut temu, godzina 17:01 UTC
Prognoza ważna od 18 godzina 18 UTC do 19 godzina 03 UTC
Wiatr 12 kt od zachodnio-południowy zachód
Widzialność 10 km lub więcej
Rozproszone chmury na wysokości 2000 ft
Prawdopodobieństwo 30% :
Przejściowo
od 18 godzina 23 UTC do 19 godzina 03 UTC
Widzialność: 6000 m
Przerywane chmury na wysokości 1400 ft
przelotny opad deszczu

TAF: EGPO 181701Z 1818/1903 24012KT 9999 SCT020 PROB30 TEMPO 1823/1903 6000 SHRA BKN014

Obserwacja i prognoza pogody dla ponad 4000 lotnisk (raport METAR i TAF).

Dostępne stacje oznaczono żółtymi i czerwonymi punktami na mapie.

Najedź kursorem aby zobaczyć nazwę stacji.

Kliknij aby zobaczyć obserwacje i prognozy pogody.

Aby zmienić mapę: kliknij na zielony przycisk z czarnym krzyżykiem, aby powiększyć; na zielony przycisk z myślnikiem, aby pomniejszyć; na zielone strzałki, aby przejść do map sąsiednich.


METAR-TAF: